TimePDT,TemperatureF,Dew PointF,Humidity,Sea Level PressureIn,VisibilityMPH,Wind Direction,Wind SpeedMPH,Gust SpeedMPH,PrecipitationIn,Events,Conditions,WindDirDegrees,DateUTC
12:53 AM,66.9,59.0,76,29.91,9.0,Calm,Calm,-,N/A,,Overcast,0,2013-07-28 07:53:00
1:53 AM,66.9,59.0,76,29.90,10.0,South,3.5,-,N/A,,Overcast,170,2013-07-28 08:53:00
2:53 AM,66.0,59.0,78,29.89,10.0,SSW,3.5,-,N/A,,Overcast,210,2013-07-28 09:53:00
3:53 AM,66.0,57.9,75,29.89,10.0,South,3.5,-,N/A,,Overcast,190,2013-07-28 10:53:00
4:53 AM,66.9,57.9,73,29.88,10.0,South,5.8,-,N/A,,Overcast,170,2013-07-28 11:53:00
5:53 AM,66.9,59.0,76,29.89,10.0,SSW,4.6,-,N/A,,Overcast,200,2013-07-28 12:53:00
6:53 AM,66.9,59.0,76,29.91,10.0,South,3.5,-,N/A,,Overcast,170,2013-07-28 13:53:00
7:53 AM,66.9,59.0,76,29.91,10.0,SW,3.5,-,N/A,,Overcast,220,2013-07-28 14:53:00
8:53 AM,66.9,59.0,76,29.92,10.0,Calm,Calm,-,N/A,,Overcast,0,2013-07-28 15:53:00
9:53 AM,69.1,59.0,70,29.92,10.0,Calm,Calm,-,N/A,,Overcast,0,2013-07-28 16:53:00
10:43 AM,71.6,59.0,64,29.92,10.0,Calm,Calm,-,N/A,,Overcast,0,2013-07-28 17:43:00
10:53 AM,72.0,59.0,64,29.92,10.0,Calm,Calm,-,N/A,,Overcast,0,2013-07-28 17:53:00
11:31 AM,73.4,59.0,61,29.92,10.0,Variable,5.8,-,N/A,,Partly Cloudy,0,2013-07-28 18:31:00
11:53 AM,75.0,59.0,57,29.91,10.0,Calm,Calm,-,N/A,,Clear,0,2013-07-28 18:53:00
12:53 PM,79.0,59.0,50,29.90,10.0,Variable,4.6,-,N/A,,Clear,0,2013-07-28 19:53:00
1:53 PM,80.1,59.0,48,29.88,10.0,Variable,5.8,-,N/A,,Clear,0,2013-07-28 20:53:00
2:53 PM,80.1,59.0,48,29.87,10.0,Variable,4.6,-,N/A,,Clear,0,2013-07-28 21:53:00
3:53 PM,78.1,59.0,52,29.87,10.0,SSW,10.4,16.1,N/A,,Clear,200,2013-07-28 22:53:00
4:53 PM,75.9,57.9,54,29.87,10.0,SW,6.9,-,N/A,,Clear,230,2013-07-28 23:53:00
5:53 PM,73.0,57.9,59,29.88,10.0,South,8.1,-,N/A,,Clear,190,2013-07-29 00:53:00
6:53 PM,71.1,57.9,63,29.88,10.0,South,6.9,-,N/A,,Clear,180,2013-07-29 01:53:00
7:53 PM,68.0,57.9,70,29.88,10.0,South,5.8,-,N/A,,Clear,190,2013-07-29 02:53:00
8:53 PM,66.0,57.9,75,29.89,10.0,South,5.8,-,N/A,,Partly Cloudy,190,2013-07-29 03:53:00
9:53 PM,66.0,57.9,75,29.92,10.0,SSW,4.6,-,N/A,,Clear,200,2013-07-29 04:53:00
10:18 PM,66.2,57.2,73,29.92,10.0,SSW,5.8,-,N/A,,Mostly Cloudy,210,2013-07-29 05:18:00
10:53 PM,66.0,57.9,75,29.92,10.0,SSW,4.6,-,N/A,,Overcast,210,2013-07-29 05:53:00
11:53 PM,69.1,57.9,68,29.92,10.0,SSW,4.6,-,N/A,,Overcast,200,2013-07-29 06:53:00